Terminal Aerodrome Forecast
Issued by NWS

Home | Current Version | Previous Version | Text Only | Print | Product List | Glossary On
Versions: 1 2 3 4 5 6 7 8 9 10 11 12 13 14 15 16 17
000
FTUS43 KGRB 061500 AAB
TAFMTW
TAF AMD
KMTW 061538Z 0616/0712 12005KT 2SM BR BKN007
      TEMPO 0616/0619 1/2SM FG BKN004
     FM061900 12008KT 3SM BR BKN015 BKN040
     FM070300 15005KT 2SM BR BKN012 BKN040
      TEMPO 0707/0711 1SM BR BKN007=

USA.gov is the U.S. government's official web portal to all federal, state and local government web resources and services.